Time;durP1;ratioP1;P1;durP2;ratioP2;P2;SDS_P1;SDS_P2;PMS_P1;PMS_P2;Temp;Humidity;BMP_temperature;BMP_pressure;BME280_temperature;BME280_humidity;BME280_pressure;Samples;Min_cycle;Max_cycle;Signal;HPM_P1;HPM_P2
2024/02/18 00:00:49;;;;;;;13.13;2.85;;;;;;;11.92;52.68;103094.94;5039989;27;97230;-69
2024/02/18 00:03:16;;;;;;;12.50;3.22;;;;;;;11.69;53.48;103096.72;5042254;27;102199;-70
2024/02/18 00:05:42;;;;;;;11.43;3.50;;;;;;;11.67;54.10;103095.88;5038296;27;98274;-69
2024/02/18 00:08:10;;;;;;;9.98;2.78;;;;;;;12.18;52.49;103102.75;5032965;27;96856;-69
2024/02/18 00:10:37;;;;;;;11.00;2.67;;;;;;;12.55;51.17;103096.34;5036728;27;96936;-69
2024/02/18 00:13:05;;;;;;;10.02;2.65;;;;;;;12.13;51.37;103099.25;5031767;27;98924;-70
2024/02/18 00:15:31;;;;;;;9.30;2.63;;;;;;;12.21;51.47;103106.25;5035730;27;101101;-70
2024/02/18 00:17:58;;;;;;;9.45;2.50;;;;;;;12.16;51.82;103104.53;5033597;27;96856;-70
2024/02/18 00:20:25;;;;;;;14.88;3.63;;;;;;;12.27;51.68;103106.22;5034878;27;96973;-70
2024/02/18 00:22:51;;;;;;;11.18;2.95;;;;;;;12.30;51.86;103102.69;5032619;27;98965;-69
2024/02/18 00:25:19;;;;;;;12.70;3.58;;;;;;;12.46;51.57;103108.81;5037614;27;99117;-69
2024/02/18 00:27:46;;;;;;;13.15;3.22;;;;;;;12.46;51.25;103095.53;5035680;27;97217;-69
2024/02/18 00:30:12;;;;;;;10.00;2.60;;;;;;;12.78;50.96;103101.50;5035641;27;96785;-69
2024/02/18 00:32:39;;;;;;;9.63;2.90;;;;;;;12.91;51.01;103100.53;5033185;27;98968;-69
2024/02/18 00:35:06;;;;;;;14.75;3.17;;;;;;;13.03;49.47;103095.09;5037207;27;98039;-68
2024/02/18 00:37:32;;;;;;;11.23;3.35;;;;;;;12.77;49.18;103097.09;5032787;27;97049;-70
2024/02/18 00:39:59;;;;;;;9.35;2.75;;;;;;;12.61;50.65;103090.13;5031209;27;97060;-70
2024/02/18 00:42:27;;;;;;;11.98;3.15;;;;;;;12.49;50.47;103087.56;5034860;27;101445;-69
2024/02/18 00:44:53;;;;;;;8.30;3.05;;;;;;;12.22;50.21;103085.94;5043546;27;98739;-70
2024/02/18 00:47:20;;;;;;;9.65;3.38;;;;;;;11.95;50.92;103082.53;5033153;27;97866;-70
2024/02/18 00:49:48;;;;;;;7.68;3.25;;;;;;;11.99;51.30;103083.41;5038898;27;96864;-69
2024/02/18 00:52:14;;;;;;;12.23;3.83;;;;;;;11.95;51.74;103089.59;5030012;27;100522;-70
2024/02/18 00:54:40;;;;;;;11.32;3.35;;;;;;;12.05;51.57;103075.44;5035451;27;99412;-70
2024/02/18 00:57:07;;;;;;;10.07;3.53;;;;;;;12.11;51.78;103080.72;5035248;27;97021;-69
2024/02/18 00:59:35;;;;;;;14.82;3.78;;;;;;;12.03;51.33;103077.19;5034001;27;96888;-69
2024/02/18 01:02:02;;;;;;;9.95;3.25;;;;;;;12.03;51.28;103074.56;5030041;27;98990;-69
2024/02/18 01:04:29;;;;;;;9.93;3.33;;;;;;;11.79;52.58;103079.97;5035047;27;98602;-70
2024/02/18 01:06:55;;;;;;;15.98;3.25;;;;;;;11.79;52.05;103085.25;5035160;27;97047;-70
2024/02/18 01:09:22;;;;;;;15.73;3.15;;;;;;;12.03;51.89;103078.97;5032793;27;97591;-70
2024/02/18 01:11:50;;;;;;;10.50;2.83;;;;;;;11.91;52.32;103079.91;5034936;27;98811;-70
2024/02/18 01:14:16;;;;;;;9.05;2.58;;;;;;;11.80;53.29;103073.78;5033154;27;101127;-70
2024/02/18 01:16:43;;;;;;;;;;;;;;;11.85;52.80;103070.22;5031484;27;97801;-69
2024/02/18 01:19:09;;;;;;;;;;;;;;;11.92;53.06;103071.06;5032032;27;97156;-69
2024/02/18 01:21:36;;;;;;;9.97;2.37;;;;;;;11.85;53.27;103064.03;5030231;27;98858;-69
2024/02/18 01:24:03;;;;;;;10.40;1.70;;;;;;;11.64;53.92;103059.66;5030849;27;100050;-69
2024/02/18 01:26:29;;;;;;;12.23;2.45;;;;;;;11.52;54.63;103055.28;5039573;27;97202;-70
2024/02/18 01:28:56;;;;;;;8.68;2.05;;;;;;;11.71;53.87;103052.59;5038155;27;96908;-70
2024/02/18 01:31:22;;;;;;;13.23;1.92;;;;;;;11.77;54.30;103049.94;5035121;27;98996;-70
2024/02/18 01:33:50;;;;;;;6.93;1.80;;;;;;;11.59;53.95;103050.88;5030497;27;99461;-70
2024/02/18 01:36:16;;;;;;;10.30;1.90;;;;;;;11.78;53.74;103059.66;5033216;27;97217;-69
2024/02/18 01:38:42;;;;;;;13.25;2.47;;;;;;;11.79;53.17;103064.06;5036836;27;96972;-70
2024/02/18 01:41:09;;;;;;;14.30;2.13;;;;;;;11.71;53.60;103053.47;5034124;27;99298;-69
2024/02/18 01:43:35;;;;;;;9.90;2.90;;;;;;;11.85;52.85;103050.78;5034875;27;99592;-69
2024/02/18 01:46:02;;;;;;;9.60;1.77;;;;;;;11.77;52.45;103061.41;5032866;27;96856;-69
2024/02/18 01:48:29;;;;;;;8.25;2.17;;;;;;;11.81;52.85;103063.19;5035369;27;96812;-71
2024/02/18 01:50:57;;;;;;;12.48;2.63;;;;;;;11.68;53.56;103057.91;5035134;27;99100;-70
2024/02/18 01:53:24;;;;;;;13.25;1.92;;;;;;;11.64;53.96;103064.06;5037228;27;98926;-69
2024/02/18 01:55:50;;;;;;;10.90;1.92;;;;;;;11.49;54.04;103062.34;5038568;27;97345;-69
2024/02/18 01:58:18;;;;;;;14.60;1.98;;;;;;;11.73;53.33;103058.75;5031206;27;96786;-70
2024/02/18 02:00:45;;;;;;;10.48;1.73;;;;;;;11.63;53.25;103063.19;5038337;27;98963;-69
2024/02/18 02:03:13;;;;;;;8.25;1.98;;;;;;;11.40;53.82;103057.97;5031071;27;98912;-69
2024/02/18 02:05:41;;;;;;;12.18;2.13;;;;;;;11.11;54.83;103070.38;5030669;27;97611;-70
2024/02/18 02:08:09;;;;;;;7.38;1.92;;;;;;;11.15;55.11;103069.50;5031532;27;97458;-77
2024/02/18 02:10:35;;;;;;;11.35;3.05;;;;;;;10.93;54.91;103086.25;5034987;27;98913;-77
2024/02/18 02:13:02;;;;;;;12.40;2.35;;;;;;;11.18;53.98;103066.84;5033803;27;99100;-77
2024/02/18 02:15:28;;;;;;;12.52;2.22;;;;;;;11.33;53.91;103064.16;5034759;27;96770;-77
2024/02/18 02:17:55;;;;;;;7.55;1.92;;;;;;;11.53;54.00;103065.00;5034870;27;97497;-77
2024/02/18 02:20:21;;;;;;;13.90;1.83;;;;;;;11.53;53.40;103057.06;5037067;27;100840;-76
2024/02/18 02:22:47;;;;;;;9.80;2.17;;;;;;;11.64;53.23;103049.06;5032089;27;98172;-77
2024/02/18 02:25:15;;;;;;;10.93;1.75;;;;;;;11.56;53.53;103049.09;5032388;27;96754;-76
2024/02/18 02:27:45;;;;;;;7.90;1.42;;;;;;;11.56;52.68;103049.09;5034278;27;96906;-77
2024/02/18 02:30:15;;;;;;;8.05;1.50;;;;;;;11.49;52.90;103057.06;5036697;27;97685;-76
2024/02/18 02:32:42;;;;;;;10.27;2.28;;;;;;;11.56;52.58;103043.78;5028320;27;99008;-77
2024/02/18 02:35:09;;;;;;;10.70;1.67;;;;;;;11.55;52.06;103035.88;5034652;27;99534;-76
2024/02/18 02:37:35;;;;;;;10.15;1.25;;;;;;;11.43;52.54;103046.47;5033494;27;96836;-76
2024/02/18 02:40:03;;;;;;;11.63;1.60;;;;;;;11.30;53.27;103044.75;5035717;27;98902;-76
2024/02/18 02:42:30;;;;;;;11.48;1.73;;;;;;;11.39;53.38;103039.44;5030412;27;98759;-77
2024/02/18 02:44:56;;;;;;;12.65;2.22;;;;;;;11.43;52.57;103034.13;5033145;27;96886;-77
2024/02/18 02:47:24;;;;;;;9.80;1.92;;;;;;;11.37;53.00;103039.44;5030342;27;97230;-78
2024/02/18 02:49:50;;;;;;;15.10;1.98;;;;;;;11.39;52.71;103026.22;5035889;27;99206;-76
2024/02/18 02:52:17;;;;;;;7.97;1.83;;;;;;;11.33;52.46;103037.69;5032293;27;98909;-77
2024/02/18 02:54:43;;;;;;;8.02;1.75;;;;;;;11.24;52.99;103029.78;5030695;27;97553;-77
2024/02/18 02:57:10;;;;;;;16.35;1.85;;;;;;;11.31;52.88;103023.56;5034963;27;97309;-76
2024/02/18 02:59:36;;;;;;;12.98;1.63;;;;;;;11.04;53.32;103031.56;5036611;27;98934;-76
2024/02/18 03:02:02;;;;;;;13.18;1.63;;;;;;;11.40;52.92;103026.22;5033040;27;97766;-78
2024/02/18 03:04:30;;;;;;;14.40;2.03;;;;;;;11.45;52.71;103037.66;5031288;27;98198;-77
2024/02/18 03:06:56;;;;;;;11.38;1.63;;;;;;;11.27;53.91;103031.53;5035780;27;96830;-76
2024/02/18 03:09:23;;;;;;;6.68;1.55;;;;;;;11.09;53.79;103024.53;5033656;27;97765;-76
2024/02/18 03:11:49;;;;;;;11.75;1.73;;;;;;;11.04;54.75;103018.34;5034593;27;98857;-76
2024/02/18 03:14:15;;;;;;;10.68;1.45;;;;;;;11.12;54.52;103012.16;5035606;27;96851;-76
2024/02/18 03:16:43;;;;;;;7.43;2.00;;;;;;;11.07;54.37;103023.63;5032098;27;97289;-76
2024/02/18 03:19:10;;;;;;;13.80;1.88;;;;;;;11.03;54.45;103016.56;5032220;27;100340;-77
2024/02/18 03:21:38;;;;;;;14.18;1.70;;;;;;;11.00;54.70;103011.31;5036402;27;99094;-76
2024/02/18 03:24:05;;;;;;;10.85;1.67;;;;;;;10.80;54.67;103006.03;5037611;27;97865;-75
2024/02/18 03:26:31;;;;;;;11.80;1.60;;;;;;;10.86;54.25;103008.66;5036414;27;97303;-77
2024/02/18 03:28:58;;;;;;;10.85;1.65;;;;;;;10.99;54.21;103014.81;5035232;27;98005;-76
2024/02/18 03:31:24;;;;;;;11.50;1.90;;;;;;;10.89;55.16;103010.44;5038129;27;101812;-77
2024/02/18 03:33:50;;;;;;;15.82;1.98;;;;;;;10.73;55.46;103009.56;5034667;27;97005;-77
2024/02/18 03:36:17;;;;;;;5.45;1.13;;;;;;;10.45;55.99;103008.66;5038636;27;96811;-76
2024/02/18 03:38:45;;;;;;;8.73;1.38;;;;;;;10.66;55.76;103015.72;5038138;27;99063;-76
2024/02/18 03:41:11;;;;;;;12.18;1.88;;;;;;;10.59;55.95;103004.25;5033681;27;97699;-76
2024/02/18 03:43:39;;;;;;;13.77;1.70;;;;;;;10.39;57.00;103006.91;5033560;27;97423;-75
2024/02/18 03:46:05;;;;;;;10.50;1.55;;;;;;;10.11;58.64;103009.47;5036532;27;97273;-75
2024/02/18 03:48:31;;;;;;;10.27;1.52;;;;;;;10.30;58.60;103012.19;5037118;27;98270;-76
2024/02/18 03:50:58;;;;;;;7.18;1.15;;;;;;;10.10;59.14;103010.34;5041990;27;99448;-76
2024/02/18 03:53:24;;;;;;;11.85;1.98;;;;;;;10.15;58.33;103004.19;5039173;27;97193;-76
2024/02/18 03:55:52;;;;;;;9.48;1.65;;;;;;;10.38;57.27;103009.53;5042717;27;97256;-76
2024/02/18 03:58:18;;;;;;;13.35;1.95;;;;;;;10.11;58.67;103012.97;5033073;27;99433;-76
2024/02/18 04:00:46;;;;;;;7.88;1.48;;;;;;;10.16;58.51;103007.72;5041409;27;98938;-76
2024/02/18 04:03:13;;;;;;;12.43;1.70;;;;;;;10.23;58.75;103015.69;5037570;27;96734;-77
2024/02/18 04:05:40;;;;;;;11.75;1.77;;;;;;;10.34;58.21;103002.50;5037420;27;97813;-76
2024/02/18 04:08:06;;;;;;;12.38;1.95;;;;;;;10.62;57.68;103003.41;5035340;27;99135;-76
2024/02/18 04:10:32;;;;;;;7.50;1.65;;;;;;;10.52;57.50;103005.16;5035991;27;100841;-76
2024/02/18 04:13:00;;;;;;;13.07;1.77;;;;;;;10.21;58.87;103012.16;5036703;27;96910;-76
2024/02/18 04:15:27;;;;;;;12.52;1.90;;;;;;;10.08;58.92;103014.75;5035517;27;97974;-77
2024/02/18 04:17:54;;;;;;;9.70;1.85;;;;;;;9.98;59.74;103019.09;5028871;27;99415;-76
2024/02/18 04:20:21;;;;;;;8.50;1.20;;;;;;;10.06;59.67;103008.56;5033016;27;99211;-76
2024/02/18 04:22:47;;;;;;;13.60;2.15;;;;;;;10.05;60.39;103009.44;5032456;27;97110;-76
2024/02/18 04:25:14;;;;;;;12.65;1.30;;;;;;;9.95;60.46;103009.44;5035909;27;97735;-77
2024/02/18 04:27:40;;;;;;;13.52;2.17;;;;;;;10.07;59.96;103000.66;5029978;27;101481;-77
2024/02/18 04:30:09;;;;;;;13.25;1.92;;;;;;;9.76;60.36;103002.31;5038925;27;99027;-77
2024/02/18 04:32:36;;;;;;;10.05;1.67;;;;;;;9.84;60.55;102991.78;5026489;27;98455;-77
2024/02/18 04:35:03;;;;;;;11.60;1.77;;;;;;;9.86;60.17;102980.34;5035777;27;97247;-77
2024/02/18 04:37:30;;;;;;;16.00;1.85;;;;;;;9.91;59.93;102975.94;5030422;27;99004;-76
2024/02/18 04:39:57;;;;;;;8.32;2.13;;;;;;;9.86;60.03;102979.47;5031358;27;97830;-77
2024/02/18 04:42:23;;;;;;;12.90;1.67;;;;;;;9.98;59.71;102977.72;5030145;27;96741;-76
2024/02/18 04:44:49;;;;;;;12.85;1.70;;;;;;;9.73;59.65;102977.66;5032176;27;97529;-77
2024/02/18 04:47:17;;;;;;;17.08;1.92;;;;;;;10.01;59.81;102982.16;5036085;27;98887;-76
2024/02/18 04:49:44;;;;;;;14.57;1.55;;;;;;;10.02;59.47;102983.91;5034826;27;99044;-77
2024/02/18 04:52:10;;;;;;;8.15;1.27;;;;;;;10.17;59.33;102986.63;5038316;27;97401;-77
2024/02/18 04:54:36;;;;;;;12.52;2.40;;;;;;;9.79;60.79;102996.16;5033763;27;97114;-77
2024/02/18 04:57:05;;;;;;;11.05;1.40;;;;;;;9.57;62.80;102997.84;5041599;27;98956;-77
2024/02/18 04:59:33;;;;;;;9.98;1.80;;;;;;;9.85;62.11;102989.13;5036008;27;98855;-76
2024/02/18 05:02:00;;;;;;;12.55;1.70;;;;;;;10.00;60.76;102989.19;5033823;27;97260;-78
2024/02/18 05:04:31;;;;;;;10.57;1.42;;;;;;;9.94;60.62;102991.81;5039371;27;97790;-76
2024/02/18 05:06:58;;;;;;;9.65;1.70;;;;;;;10.12;59.70;102995.38;5036269;27;98978;-76
2024/02/18 05:09:24;;;;;;;14.65;2.42;;;;;;;10.11;59.95;103002.41;5037648;27;99421;-77
2024/02/18 05:11:51;;;;;;;11.07;1.90;;;;;;;9.83;60.65;103001.47;5036186;27;96849;-78
2024/02/18 05:14:17;;;;;;;14.35;2.20;;;;;;;9.87;61.36;103005.88;5030308;27;96900;-77
2024/02/18 05:16:44;;;;;;;11.98;1.90;;;;;;;9.77;62.27;102997.94;5031117;27;101769;-76
2024/02/18 05:19:10;;;;;;;13.15;2.22;;;;;;;9.60;63.04;103000.50;5031058;27;99370;-76
2024/02/18 05:21:40;;;;;;;15.45;1.83;;;;;;;9.67;63.79;103004.91;5032922;27;97382;-76
2024/02/18 05:24:06;;;;;;;16.77;2.10;;;;;;;9.69;63.22;103000.53;5027134;27;97206;-76
2024/02/18 05:26:33;;;;;;;14.32;2.05;;;;;;;9.73;62.94;102994.38;5033454;27;100271;-76
2024/02/18 05:28:59;;;;;;;13.30;1.65;;;;;;;9.89;60.99;102984.75;5031094;27;98793;-76
2024/02/18 05:31:26;;;;;;;6.63;1.88;;;;;;;9.87;60.84;102978.59;5037376;27;97385;-77
2024/02/18 05:33:53;;;;;;;13.43;1.88;;;;;;;10.12;60.32;102982.16;5030087;27;98470;-77
2024/02/18 05:36:20;;;;;;;11.18;1.90;;;;;;;9.96;60.98;102990.06;5044613;27;98064;-77
2024/02/18 05:38:48;;;;;;;14.60;2.40;;;;;;;9.87;61.97;102997.94;5035222;27;99297;-77
2024/02/18 05:41:16;;;;;;;8.90;1.58;;;;;;;9.55;62.67;102984.63;5034948;27;97007;-76
2024/02/18 05:43:42;;;;;;;12.35;1.67;;;;;;;9.72;61.64;102975.88;5035278;27;96896;-76
2024/02/18 05:46:09;;;;;;;9.88;1.85;;;;;;;9.61;62.21;102973.22;5037089;27;101244;-76
2024/02/18 05:48:35;;;;;;;10.40;1.50;;;;;;;9.61;62.19;102975.84;5030169;27;98526;-76
2024/02/18 05:51:01;;;;;;;13.57;1.63;;;;;;;9.58;62.66;102978.50;5037925;27;96868;-76
2024/02/18 05:53:28;;;;;;;18.92;2.05;;;;;;;9.63;62.34;102983.78;5035700;27;96942;-76
2024/02/18 05:55:55;;;;;;;12.30;1.70;;;;;;;9.65;61.77;102982.06;5030139;27;98931;-77
2024/02/18 05:58:23;;;;;;;10.02;2.10;;;;;;;9.41;63.24;102981.06;5028881;27;98981;-77
2024/02/18 06:00:49;;;;;;;9.98;1.60;;;;;;;9.55;62.92;102986.41;5036027;27;98043;-77
2024/02/18 06:03:16;;;;;;;15.52;2.38;;;;;;;9.37;63.01;102978.41;5030009;27;97636;-76
2024/02/18 06:05:43;;;;;;;13.43;2.10;;;;;;;9.43;62.53;102979.31;5029106;27;99302;-76
2024/02/18 06:08:09;;;;;;;12.15;1.67;;;;;;;9.48;62.74;102966.13;5034487;27;98762;-78
2024/02/18 06:10:36;;;;;;;8.18;1.70;;;;;;;9.38;63.62;102970.50;5033028;27;97185;-76
2024/02/18 06:13:04;;;;;;;13.32;3.25;;;;;;;9.57;62.71;102974.97;5034139;27;96790;-76
2024/02/18 06:15:32;;;;;;;14.32;2.08;;;;;;;9.70;62.30;102973.25;5032864;27;98790;-76
2024/02/18 06:17:59;;;;;;;12.90;2.30;;;;;;;9.67;62.35;102981.16;5032352;27;98869;-77
2024/02/18 06:20:27;;;;;;;15.65;2.30;;;;;;;9.70;62.74;102973.25;5031561;27;96781;-76
2024/02/18 06:22:53;;;;;;;9.45;2.00;;;;;;;9.56;62.83;102972.31;5035650;27;96989;-76
2024/02/18 06:25:20;;;;;;;15.82;2.95;;;;;;;9.60;62.96;102979.38;5031239;27;97159;-77
2024/02/18 06:27:47;;;;;;;9.95;1.98;;;;;;;9.59;63.51;102981.13;5036720;27;99267;-76
2024/02/18 06:30:16;;;;;;;17.98;3.03;;;;;;;9.62;63.36;102974.09;5029795;27;96889;-76
2024/02/18 06:32:42;;;;;;;14.15;2.05;;;;;;;9.77;62.83;102975.06;5030310;27;97180;-77
2024/02/18 06:35:09;;;;;;;13.85;3.42;;;;;;;9.66;63.67;102982.03;5032955;27;99132;-77
2024/02/18 06:37:35;;;;;;;11.98;2.53;;;;;;;9.83;63.40;102967.16;5038394;27;97750;-77
2024/02/18 06:40:02;;;;;;;12.52;2.13;;;;;;;9.62;64.00;102967.06;5033307;27;97538;-76
2024/02/18 06:42:28;;;;;;;9.32;2.10;;;;;;;9.40;64.50;102960.81;5039824;27;97167;-76
2024/02/18 06:44:54;;;;;;;13.88;2.50;;;;;;;9.57;64.38;102974.09;5033681;27;97756;-76
2024/02/18 06:47:22;;;;;;;11.32;2.35;;;;;;;9.75;64.37;102960.06;5047594;27;98879;-77
2024/02/18 06:49:48;;;;;;;23.48;3.08;;;;;;;9.89;63.46;102961.88;5034323;27;96851;-77
2024/02/18 06:52:15;;;;;;;18.13;2.47;;;;;;;9.84;62.89;102960.09;5040423;27;97524;-76
2024/02/18 06:54:41;;;;;;;12.70;2.78;;;;;;;9.87;63.34;102955.69;5032537;27;97852;-77
2024/02/18 06:57:08;;;;;;;12.55;2.38;;;;;;;10.07;62.78;102957.50;5033961;27;99153;-77
2024/02/18 06:59:34;;;;;;;14.88;2.70;;;;;;;9.87;63.52;102952.19;5033220;27;97389;-77
2024/02/18 07:02:00;;;;;;;22.17;2.75;;;;;;;10.17;62.52;102957.56;5034539;27;99458;-77
2024/02/18 07:04:28;;;;;;;16.05;2.75;;;;;;;10.17;62.21;102960.22;5031429;27;101223;-76
2024/02/18 07:06:54;;;;;;;16.10;3.00;;;;;;;10.24;61.72;102947.88;5040632;27;101935;-77
2024/02/18 07:09:21;;;;;;;10.23;2.33;;;;;;;10.30;62.03;102942.59;5033117;27;97899;-77
2024/02/18 07:11:48;;;;;;;11.88;2.30;;;;;;;10.36;61.76;102932.03;5038850;27;97086;-76
2024/02/18 07:14:15;;;;;;;14.50;2.75;;;;;;;10.07;62.09;102944.28;5033839;27;97601;-77
2024/02/18 07:16:41;;;;;;;11.48;2.33;;;;;;;10.12;62.44;102942.53;5037477;27;98271;-76
2024/02/18 07:19:08;;;;;;;13.43;2.55;;;;;;;10.08;62.41;102944.31;5030986;27;96816;-77
2024/02/18 07:21:36;;;;;;;15.48;2.10;;;;;;;10.35;61.51;102932.91;5037141;27;97023;-77
2024/02/18 07:24:02;;;;;;;11.15;2.80;;;;;;;10.47;61.23;102926.72;5037371;27;100207;-76
2024/02/18 07:26:29;;;;;;;19.10;2.30;;;;;;;10.23;61.79;102922.34;5036988;27;101275;-75
2024/02/18 07:28:55;;;;;;;19.35;2.53;;;;;;;10.36;61.43;102916.16;5037787;27;97312;-75
2024/02/18 07:31:21;;;;;;;24.55;3.53;;;;;;;10.58;60.58;102917.91;5042045;27;97767;-76
2024/02/18 07:33:48;;;;;;;14.60;2.17;;;;;;;10.53;60.52;102924.97;5032484;27;99656;-77
2024/02/18 07:36:14;;;;;;;17.10;2.85;;;;;;;10.69;60.03;102924.06;5045207;27;99746;-76
2024/02/18 07:38:42;;;;;;;11.65;2.28;;;;;;;10.88;59.38;102914.34;5032687;27;97758;-76
2024/02/18 07:41:08;;;;;;;9.63;2.03;;;;;;;10.99;58.70;102909.00;5042234;27;96971;-76
2024/02/18 07:43:35;;;;;;;13.02;2.70;;;;;;;10.83;59.70;102899.38;5030964;27;99710;-76
2024/02/18 07:46:01;;;;;;;16.98;2.63;;;;;;;10.92;58.83;102902.84;5030867;27;99170;-77
2024/02/18 07:48:28;;;;;;;21.25;2.20;;;;;;;11.10;58.41;102896.63;5033287;27;97109;-77
2024/02/18 07:50:54;;;;;;;18.13;2.65;;;;;;;10.91;58.66;102900.19;5032926;27;96804;-76
2024/02/18 07:53:20;;;;;;;16.85;2.75;;;;;;;11.10;58.23;102893.97;5031715;27;99008;-77
2024/02/18 07:55:49;;;;;;;10.18;2.17;;;;;;;10.91;58.60;102897.56;5030973;27;97681;-77
2024/02/18 07:58:15;;;;;;;7.80;2.42;;;;;;;11.00;58.69;102900.19;5034754;27;98211;-75
2024/02/18 08:00:42;;;;;;;12.35;2.42;;;;;;;11.22;57.39;102896.59;5040023;27;97577;-77
2024/02/18 08:03:09;;;;;;;15.63;2.30;;;;;;;11.38;57.03;102892.97;5033898;27;98931;-76
2024/02/18 08:05:35;;;;;;;15.88;2.63;;;;;;;11.33;57.11;102878.88;5033759;27;99358;-76
2024/02/18 08:08:02;;;;;;;16.17;2.50;;;;;;;11.17;56.86;102888.66;5031778;27;97255;-76
2024/02/18 08:10:28;;;;;;;10.80;2.35;;;;;;;11.18;57.18;102882.47;5035284;27;97386;-76
2024/02/18 08:12:56;;;;;;;12.02;2.67;;;;;;;11.13;57.05;102880.75;5034380;27;99336;-76
2024/02/18 08:15:22;;;;;;;12.85;2.38;;;;;;;11.25;57.04;102875.38;5035482;27;99516;-76
2024/02/18 08:17:49;;;;;;;12.98;3.00;;;;;;;11.32;56.73;102873.59;5033270;27;97217;-76
2024/02/18 08:20:16;;;;;;;9.93;2.47;;;;;;;11.21;56.48;102859.53;5032813;27;97634;-76
2024/02/18 08:22:42;;;;;;;14.43;2.78;;;;;;;11.15;55.85;102855.16;5034589;27;98982;-76
2024/02/18 08:25:09;;;;;;;18.00;3.60;;;;;;;11.17;56.34;102856.00;5033509;27;98733;-76
2024/02/18 08:27:36;;;;;;;11.32;2.80;;;;;;;11.04;56.80;102857.84;5032213;27;97388;-76
2024/02/18 08:30:05;;;;;;;14.90;2.50;;;;;;;11.11;56.68;102845.47;5032559;27;97099;-76
2024/02/18 08:32:31;;;;;;;12.77;2.15;;;;;;;10.97;56.97;102849.94;5031254;27;98959;-76
2024/02/18 08:34:58;;;;;;;10.95;2.35;;;;;;;11.10;56.70;102843.69;5029765;27;99380;-76
2024/02/18 08:37:24;;;;;;;13.68;2.47;;;;;;;10.90;57.11;102833.19;5039816;27;97294;-77
2024/02/18 08:39:51;;;;;;;14.73;2.55;;;;;;;11.08;56.64;102838.44;5032666;27;98429;-77
2024/02/18 08:42:17;;;;;;;15.57;2.80;;;;;;;10.98;56.83;102838.47;5034200;27;99318;-76
2024/02/18 08:44:44;;;;;;;16.35;3.05;;;;;;;10.89;57.12;102830.59;5033176;27;101477;-76
2024/02/18 08:47:12;;;;;;;14.73;3.25;;;;;;;10.95;57.15;102827.91;5032620;27;96732;-76
2024/02/18 08:49:41;;;;;;;9.50;2.10;;;;;;;11.03;56.76;102816.38;5036173;27;97300;-77
2024/02/18 08:52:08;;;;;;;13.23;2.83;;;;;;;11.16;56.75;102814.56;5038901;27;99345;-78
2024/02/18 08:54:34;;;;;;;10.63;2.13;;;;;;;11.20;56.62;102811.03;5030430;27;100222;-76
2024/02/18 08:57:01;;;;;;;15.23;2.15;;;;;;;11.10;56.11;102807.53;5032153;27;98536;-75
2024/02/18 08:59:27;;;;;;;14.80;3.03;;;;;;;10.98;56.99;102796.13;5031633;27;98411;-76
2024/02/18 09:01:56;;;;;;;14.35;2.35;;;;;;;11.35;56.42;102792.44;5039998;27;99003;-76
2024/02/18 09:04:23;;;;;;;12.63;2.15;;;;;;;11.53;56.60;102788.75;5030653;27;99214;-76
2024/02/18 09:06:50;;;;;;;15.88;2.70;;;;;;;11.68;55.77;102791.31;5038490;27;97088;-77
2024/02/18 09:09:17;;;;;;;8.07;2.35;;;;;;;11.34;56.84;102788.00;5032195;27;97449;-77
2024/02/18 09:11:43;;;;;;;14.60;3.00;;;;;;;11.71;56.40;102790.38;5039342;27;98918;-77
2024/02/18 09:14:10;;;;;;;12.52;3.05;;;;;;;11.68;56.00;102779.84;5040032;27;97563;-77
2024/02/18 09:16:36;;;;;;;12.75;3.03;;;;;;;11.83;55.79;102779.72;5041196;27;97802;-76
2024/02/18 09:19:03;;;;;;;17.52;2.78;;;;;;;11.83;56.32;102774.41;5035305;27;97302;-77
2024/02/18 09:21:30;;;;;;;12.75;2.50;;;;;;;12.12;55.46;102777.69;5035618;27;99008;-77
2024/02/18 09:23:58;;;;;;;10.07;2.20;;;;;;;11.75;56.31;102763.88;5033303;27;100425;-77
2024/02/18 09:26:25;;;;;;;22.15;3.38;;;;;;;11.86;56.17;102761.16;5031758;27;96776;-77
2024/02/18 09:28:52;;;;;;;14.55;2.38;;;;;;;11.71;56.63;102755.97;5037981;27;96885;-76
2024/02/18 09:31:18;;;;;;;10.60;2.50;;;;;;;11.69;57.15;102748.00;5031684;27;98099;-78
2024/02/18 09:33:45;;;;;;;17.75;2.55;;;;;;;11.89;57.00;102746.09;5030620;27;99092;-76
2024/02/18 09:36:11;;;;;;;13.38;2.30;;;;;;;11.96;56.58;102745.16;5040408;27;97181;-77
2024/02/18 09:38:40;;;;;;;14.75;2.40;;;;;;;12.05;56.53;102749.50;5029061;27;96920;-76
2024/02/18 09:41:10;;;;;;;15.63;2.67;;;;;;;12.07;56.26;102746.84;5039386;27;101702;-76
2024/02/18 09:43:42;;;;;;;15.52;2.25;;;;;;;11.81;57.01;102745.31;5028098;27;97617;-77
2024/02/18 09:46:09;;;;;;;10.23;1.88;;;;;;;11.77;57.88;102753.28;5036158;27;98385;-77
2024/02/18 09:48:37;;;;;;;9.70;2.08;;;;;;;11.99;56.71;102746.91;5029434;27;97172;-79
2024/02/18 09:51:05;;;;;;;8.50;1.85;;;;;;;11.96;57.10;102750.47;5035261;27;99290;-78
2024/02/18 09:53:33;;;;;;;10.07;2.50;;;;;;;12.35;56.36;102751.81;5027519;27;98798;-76
2024/02/18 09:56:03;;;;;;;13.63;2.28;;;;;;;12.45;55.57;102754.38;5030719;27;96818;-77
2024/02/18 09:58:29;;;;;;;11.18;2.58;;;;;;;12.54;55.52;102746.28;5029863;27;97547;-77
2024/02/18 10:01:00;;;;;;;10.90;2.50;;;;;;;12.60;54.94;102738.28;5030500;27;100882;-77
2024/02/18 10:03:27;;;;;;;9.88;1.80;;;;;;;12.62;54.82;102739.13;5034379;27;98775;-76
2024/02/18 10:05:54;;;;;;;10.32;2.17;;;;;;;12.69;54.32;102739.03;5031770;27;97144;-78
2024/02/18 10:08:21;;;;;;;7.70;2.08;;;;;;;12.64;54.38;102735.56;5038081;27;98203;-77
2024/02/18 10:10:47;;;;;;;10.75;2.17;;;;;;;12.60;54.14;102728.53;5030628;27;99319;-77
2024/02/18 10:13:16;;;;;;;13.50;2.30;;;;;;;12.82;54.22;102721.19;5029179;27;99127;-76
2024/02/18 10:15:42;;;;;;;12.82;2.28;;;;;;;12.97;53.64;102722.75;5031079;27;96846;-76
2024/02/18 10:18:09;;;;;;;12.13;2.10;;;;;;;12.70;54.11;102716.94;5031214;27;96784;-77
2024/02/18 10:20:36;;;;;;;11.02;2.25;;;;;;;12.63;54.63;102706.41;5031371;27;99027;-77
2024/02/18 10:23:04;;;;;;;8.38;1.95;;;;;;;12.87;54.20;102692.81;5035500;27;99504;-77
2024/02/18 10:25:31;;;;;;;9.25;2.28;;;;;;;12.96;53.99;102687.38;5031999;27;97491;-76
2024/02/18 10:27:58;;;;;;;16.27;2.35;;;;;;;13.25;52.97;102686.09;5034334;27;96822;-76
2024/02/18 10:30:26;;;;;;;9.23;2.53;;;;;;;13.15;53.01;102680.91;5029737;27;99108;-76
2024/02/18 10:32:53;;;;;;;11.20;2.45;;;;;;;12.92;53.75;102683.03;5033922;27;98130;-77
2024/02/18 10:35:19;;;;;;;13.57;2.33;;;;;;;13.22;53.34;102681.69;5029382;27;96803;-76
2024/02/18 10:37:49;;;;;;;8.50;2.58;;;;;;;13.15;52.96;102672.09;5029737;27;96804;-77
2024/02/18 10:40:27;;;;;;;15.20;2.97;;;;;;;13.18;52.95;102676.47;5030300;27;98961;-77
2024/02/18 10:43:01;;;;;;;12.88;2.25;;;;;;;13.36;53.25;102673.53;5033171;27;98351;-76
2024/02/18 10:45:31;;;;;;;13.45;2.33;;;;;;;13.25;53.11;102675.47;5024294;27;97243;-76
2024/02/18 10:48:02;;;;;;;14.38;2.35;;;;;;;13.66;52.51;102675.63;5032851;27;96780;-76
2024/02/18 10:50:35;;;;;;;10.63;2.25;;;;;;;13.82;51.86;102671.81;5029426;27;100969;-75
2024/02/18 10:53:10;;;;;;;12.90;2.63;;;;;;;13.82;51.23;102669.16;5028844;27;99573;-76
2024/02/18 10:55:49;;;;;;;9.80;1.95;;;;;;;14.10;50.93;102658.00;5033926;27;96867;-76
2024/02/18 10:58:27;;;;;;;13.63;3.95;;;;;;;14.13;50.59;102657.91;5031021;27;100110;-77
2024/02/18 11:00:58;;;;;;;12.88;2.47;;;;;;;14.23;50.38;102656.84;5030251;27;98881;-76
2024/02/18 11:03:41;;;;;;;12.52;1.92;;;;;;;14.04;50.76;102655.47;5030869;27;99990;-76
2024/02/18 11:06:09;;;;;;;9.55;2.08;;;;;;;14.27;50.37;102638.13;5034179;27;97090;-77
2024/02/18 11:08:39;;;;;;;7.95;2.35;;;;;;;14.38;50.22;102629.06;5036680;27;96832;-76
2024/02/18 11:11:06;;;;;;;8.48;2.05;;;;;;;14.56;49.99;102621.59;5033835;27;98910;-76
2024/02/18 11:13:35;;;;;;;8.25;1.90;;;;;;;14.54;50.27;102620.72;5029897;27;98886;-76
2024/02/18 11:16:03;;;;;;;8.02;2.35;;;;;;;14.65;49.62;102621.34;5028691;27;96779;-77
2024/02/18 11:18:31;;;;;;;8.43;2.50;;;;;;;14.36;50.34;102607.81;5026620;27;97134;-76